Time;durP1;ratioP1;P1;durP2;ratioP2;P2;SDS_P1;SDS_P2;PMS_P1;PMS_P2;Temp;Humidity;BMP_temperature;BMP_pressure;BME280_temperature;BME280_humidity;BME280_pressure;Samples;Min_cycle;Max_cycle;Signal;HPM_P1;HPM_P2
2022/04/17 00:00:52;;;;;;;4.63;2.63;;;;;;;7.87;47.62;101240.28;1091575;39;20597;-85
2022/04/17 00:01:54;;;;;;;5.45;2.70;;;;;;;7.85;47.35;101236.84;1088588;54;20037;-84
2022/04/17 00:02:58;;;;;;;4.88;2.55;;;;;;;7.86;47.71;101238.56;1088556;54;20030;-84
2022/04/17 00:03:59;;;;;;;5.85;3.20;;;;;;;7.85;47.55;101247.50;1113514;39;20653;-85
2022/04/17 00:05:04;;;;;;;4.60;2.70;;;;;;;7.84;47.26;101237.81;1088629;54;20017;-85
2022/04/17 00:07:11;;;;;;;5.18;2.70;;;;;;;7.85;47.50;101241.34;1088440;54;20038;-85
2022/04/17 00:08:18;;;;;;;6.00;3.20;;;;;;;7.89;47.46;101238.38;1088613;54;20021;-84
2022/04/17 00:09:20;;;;;;;5.93;2.78;;;;;;;7.88;47.41;101236.66;1096511;39;20257;-85
2022/04/17 00:10:24;;;;;;;5.75;3.13;;;;;;;7.91;47.49;101238.28;1088475;54;20026;-89
2022/04/17 00:11:26;;;;;;;5.20;2.45;;;;;;;7.88;47.47;101241.16;1089846;39;20597;-84
2022/04/17 00:13:33;;;;;;;7.00;3.30;;;;;;;7.70;48.08;101232.53;1088487;54;20018;-86
2022/04/17 00:14:35;;;;;;;9.10;3.47;;;;;;;7.69;48.00;101231.69;1088471;54;20010;-84
2022/04/17 00:15:39;;;;;;;6.07;3.47;;;;;;;7.66;48.23;101234.53;1088510;54;20865;-86
2022/04/17 00:16:41;;;;;;;5.70;3.10;;;;;;;7.69;47.92;101233.47;1088522;54;20022;-84
2022/04/17 00:17:45;;;;;;;4.75;2.90;;;;;;;7.77;47.83;101228.50;1089883;46;20018;-85
2022/04/17 00:18:47;;;;;;;7.63;2.90;;;;;;;7.80;47.68;101229.16;1088516;54;20030;-86
2022/04/17 00:19:51;;;;;;;5.38;3.10;;;;;;;7.84;47.43;101224.50;1088604;54;20082;-84
2022/04/17 00:20:55;;;;;;;6.50;3.15;;;;;;;7.86;47.18;101225.25;1088564;54;20063;-87
2022/04/17 00:21:56;;;;;;;5.53;2.40;;;;;;;7.91;47.03;101220.50;1088498;54;20041;-87
2022/04/17 00:23:01;;;;;;;5.93;3.72;;;;;;;7.88;47.26;101225.19;1088462;54;20026;-85
2022/04/17 00:24:05;;;;;;;5.97;3.03;;;;;;;7.78;47.71;101227.56;1088563;54;20018;-83
2022/04/17 00:25:11;;;;;;;5.13;3.25;;;;;;;7.64;48.11;101221.31;1088509;54;20061;-86
2022/04/17 00:26:13;;;;;;;5.82;3.20;;;;;;;7.59;48.02;101215.41;1088464;54;20045;-84
2022/04/17 00:27:17;;;;;;;6.03;3.20;;;;;;;7.56;48.20;101218.25;1088318;54;20019;-85
2022/04/17 00:28:19;;;;;;;5.70;3.60;;;;;;;7.58;47.99;101215.53;1088361;54;20034;-84
2022/04/17 00:29:23;;;;;;;4.95;3.13;;;;;;;7.62;48.04;101215.25;1088420;54;20034;-86
2022/04/17 00:30:24;;;;;;;7.78;3.28;;;;;;;7.64;48.08;101218.66;1088371;54;20082;-84
2022/04/17 00:32:32;;;;;;;6.68;3.20;;;;;;;7.69;47.74;101214.84;1088420;54;20039;-84
2022/04/17 00:33:34;;;;;;;6.32;3.38;;;;;;;7.62;48.33;101212.56;1109684;31;20756;-83
2022/04/17 00:34:38;;;;;;;6.57;3.55;;;;;;;7.55;48.23;101213.06;1088509;54;20018;-84
2022/04/17 00:35:43;;;;;;;5.47;3.15;;;;;;;7.51;48.35;101215.06;1088417;54;20022;-84
2022/04/17 00:38:56;;;;;;;6.10;3.53;;;;;;;7.47;48.56;101208.19;1088392;54;20082;-84
2022/04/17 00:40:01;;;;;;;7.47;3.30;;;;;;;7.47;48.58;101201.09;1088372;54;20041;-84
2022/04/17 00:41:06;;;;;;;5.53;3.42;;;;;;;7.48;48.51;101201.94;1088369;54;20839;-85
2022/04/17 00:42:09;;;;;;;5.85;3.00;;;;;;;7.54;48.17;101195.38;1088344;54;20642;-84
2022/04/17 00:43:26;;;;;;;4.78;2.75;;;;;;;7.54;48.16;101206.88;1088520;54;20014;-83
2022/04/17 00:44:27;;;;;;;5.47;3.03;;;;;;;7.54;48.18;101201.56;1088561;54;20030;-84
2022/04/17 00:45:31;;;;;;;5.25;3.20;;;;;;;7.52;48.37;101200.81;1088487;54;20706;-86
2022/04/17 00:46:33;;;;;;;4.88;3.08;;;;;;;7.56;48.33;101199.63;1088490;54;20014;-84
2022/04/17 00:47:37;;;;;;;5.22;2.90;;;;;;;7.58;48.10;101196.91;1088482;54;20038;-85
2022/04/17 00:49:45;;;;;;;5.38;2.70;;;;;;;7.59;48.08;101195.94;1088387;54;20022;-85
2022/04/17 00:50:50;;;;;;;6.05;3.38;;;;;;;7.61;48.02;101197.56;1088462;54;20038;-84
2022/04/17 00:51:54;;;;;;;5.13;2.70;;;;;;;7.61;48.05;101192.22;1088540;54;20031;-84
2022/04/17 00:52:56;;;;;;;5.20;2.70;;;;;;;7.46;48.32;101201.19;1088493;54;20037;-84
2022/04/17 00:54:02;;;;;;;5.35;2.85;;;;;;;7.43;48.48;101204.88;1088466;54;20015;-84
2022/04/17 00:55:08;;;;;;;5.07;3.03;;;;;;;7.45;48.66;101202.16;1088506;54;20077;-83
2022/04/17 00:56:13;;;;;;;8.07;4.20;;;;;;;7.36;48.65;101210.69;1088531;54;20022;-85
2022/04/17 00:58:20;;;;;;;7.35;3.40;;;;;;;7.31;48.76;101203.00;1088523;54;20010;-85
2022/04/17 01:01:33;;;;;;;5.32;3.40;;;;;;;7.21;48.98;101197.38;1088432;54;20023;-84
2022/04/17 01:02:34;;;;;;;6.70;3.30;;;;;;;7.15;49.06;101200.44;1088342;54;20018;-83
2022/04/17 01:05:47;;;;;;;5.00;3.33;;;;;;;6.97;49.62;101182.00;1088401;54;20839;-85
2022/04/17 01:06:48;;;;;;;5.55;3.22;;;;;;;7.02;49.46;101189.69;1088431;54;20019;-85
2022/04/17 01:07:53;;;;;;;5.05;3.00;;;;;;;7.04;49.56;101187.78;1088366;54;20011;-83
2022/04/17 01:10:02;;;;;;;5.95;3.30;;;;;;;6.99;49.72;101180.09;1088770;54;20022;-85
2022/04/17 01:12:14;;;;;;;5.10;3.20;;;;;;;6.93;49.75;101196.41;1088779;54;20022;-85
2022/04/17 01:13:16;;;;;;;6.78;3.10;;;;;;;6.95;49.71;101194.53;1088551;54;20033;-84
2022/04/17 01:15:31;;;;;;;7.05;3.80;;;;;;;6.83;49.87;101187.28;1088791;54;20011;-83
2022/04/17 01:16:33;;;;;;;5.68;3.58;;;;;;;6.83;49.85;101190.81;1100452;47;20019;-84
2022/04/17 01:18:14;;;;;;;6.03;3.35;;;;;;;6.81;50.28;101187.38;1088552;54;20018;-84
2022/04/17 01:20:22;;;;;;;5.40;3.50;;;;;;;6.92;49.60;101189.38;1088773;54;20014;-84
2022/04/17 01:21:27;;;;;;;6.05;3.17;;;;;;;6.94;49.67;101186.66;1088424;54;20037;-85
2022/04/17 01:22:38;;;;;;;6.00;2.85;;;;;;;6.95;49.72;101185.69;1088507;54;20040;-84
2022/04/17 01:32:30;;;;;;;6.05;3.30;;;;;;;6.85;50.35;101177.44;1114069;39;21084;-83
2022/04/17 01:33:31;;;;;;;7.95;3.70;;;;;;;6.75;50.65;101176.28;1088427;54;20026;-84
2022/04/17 01:34:39;;;;;;;5.45;3.40;;;;;;;6.75;50.71;101177.13;1093282;47;20033;-83
2022/04/17 01:35:41;;;;;;;5.68;3.28;;;;;;;6.70;50.90;101179.19;1088468;54;20031;-84
2022/04/17 01:36:50;;;;;;;5.97;3.38;;;;;;;6.67;50.87;101169.63;1088533;54;20022;-84
2022/04/17 01:38:58;;;;;;;4.82;3.13;;;;;;;6.63;51.06;101172.56;1088456;54;20992;-83
2022/04/17 01:43:13;;;;;;;5.88;4.00;;;;;;;6.48;51.72;101171.66;1088450;54;20078;-84
2022/04/17 01:48:45;;;;;;;6.13;3.53;;;;;;;6.27;51.91;101171.13;1088311;54;20034;-85
2022/04/17 01:53:05;;;;;;;5.20;3.83;;;;;;;6.19;52.14;101166.25;1084970;54;20039;-82
2022/04/17 01:54:08;;;;;;;5.10;3.22;;;;;;;6.19;51.93;101171.56;1088478;39;20565;-81
2022/04/17 01:55:13;;;;;;;8.45;3.50;;;;;;;6.17;51.95;101168.13;1087776;54;20087;-82
2022/04/17 01:56:14;;;;;;;6.85;3.67;;;;;;;6.15;51.86;101168.22;1089117;39;20654;-81
2022/04/17 01:57:18;;;;;;;6.75;3.80;;;;;;;6.13;51.92;101167.47;1088022;54;20098;-81
2022/04/17 01:58:20;;;;;;;6.93;3.65;;;;;;;6.08;52.02;101167.72;1087856;54;20034;-81
2022/04/17 01:59:25;;;;;;;6.10;4.00;;;;;;;6.02;52.21;101173.41;1087878;54;20035;-82
2022/04/17 02:00:27;;;;;;;8.18;3.70;;;;;;;6.04;52.07;101168.84;1087792;54;20768;-82
2022/04/17 02:01:31;;;;;;;5.45;3.50;;;;;;;6.04;52.13;101160.91;1088005;54;20026;-81
2022/04/17 02:02:36;;;;;;;6.65;3.58;;;;;;;5.99;52.41;101162.94;1088079;54;20031;-82
2022/04/17 02:03:39;;;;;;;5.53;3.65;;;;;;;6.03;52.42;101159.19;1088102;54;20034;-83
2022/04/17 02:04:43;;;;;;;8.05;3.22;;;;;;;6.02;52.25;101157.47;1088186;54;20061;-81
2022/04/17 02:05:45;;;;;;;7.30;3.40;;;;;;;6.05;52.08;101156.44;1088066;54;20042;-81
2022/04/17 02:06:50;;;;;;;7.18;3.60;;;;;;;6.05;52.08;101154.63;1088177;54;20081;-81
2022/04/17 02:07:52;;;;;;;5.25;3.58;;;;;;;6.08;52.14;101158.91;1088363;54;20035;-82
2022/04/17 02:08:59;;;;;;;5.60;3.53;;;;;;;6.03;51.97;101153.88;1088219;54;20038;-83
2022/04/17 02:10:03;;;;;;;5.40;3.60;;;;;;;6.06;52.27;101161.63;1088395;54;20969;-83
2022/04/17 02:11:04;;;;;;;6.45;3.47;;;;;;;6.04;52.25;101157.38;1088327;54;20039;-83
2022/04/17 02:12:09;;;;;;;7.20;3.67;;;;;;;6.01;52.30;101154.88;1088263;54;20094;-83
2022/04/17 02:13:11;;;;;;;7.40;3.58;;;;;;;5.99;52.14;101152.31;1088230;54;20039;-83
2022/04/17 02:14:15;;;;;;;7.07;3.80;;;;;;;5.96;52.55;101151.63;1088296;54;20041;-82
2022/04/17 02:15:17;;;;;;;5.53;3.40;;;;;;;5.99;52.23;101149.66;1088430;54;20022;-83
2022/04/17 02:16:22;;;;;;;6.88;3.65;;;;;;;5.97;52.22;101153.31;1088089;54;20026;-81
2022/04/17 02:17:26;;;;;;;7.22;3.65;;;;;;;5.96;52.45;101156.94;1091681;39;20327;-80
2022/04/17 02:18:28;;;;;;;8.50;3.55;;;;;;;5.95;52.44;101161.38;1087966;54;20034;-80
2022/04/17 02:19:32;;;;;;;8.45;3.72;;;;;;;5.96;52.40;101152.47;1088914;39;20730;-80
2022/04/17 02:20:34;;;;;;;6.95;3.85;;;;;;;5.94;52.43;101151.72;1088060;54;20034;-81
2022/04/17 02:21:38;;;;;;;5.90;3.25;;;;;;;5.98;52.38;101147.91;1088022;54;20030;-80
2022/04/17 02:22:40;;;;;;;5.75;3.50;;;;;;;6.02;52.36;101157.47;1087989;54;20031;-82
2022/04/17 02:23:45;;;;;;;7.28;3.10;;;;;;;6.08;51.94;101150.94;1087893;54;20057;-80
2022/04/17 02:24:53;;;;;;;5.38;3.08;;;;;;;6.12;52.32;101146.31;1088156;54;20015;-81
2022/04/17 02:25:54;;;;;;;5.70;3.15;;;;;;;6.09;52.01;101140.22;1088115;54;20042;-82
2022/04/17 02:26:58;;;;;;;7.25;3.25;;;;;;;6.06;52.14;101145.72;1088354;54;20119;-81
2022/04/17 02:28:00;;;;;;;6.25;3.50;;;;;;;6.03;52.30;101140.59;1088372;54;20034;-82
2022/04/17 02:29:04;;;;;;;7.53;3.35;;;;;;;5.98;52.18;101141.78;1088444;54;20030;-82
2022/04/17 02:30:07;;;;;;;6.32;3.67;;;;;;;5.95;52.55;101140.16;1088383;54;20042;-81
2022/04/17 02:31:12;;;;;;;7.35;3.92;;;;;;;5.95;52.27;101140.16;1091684;31;20665;-81
2022/04/17 02:32:14;;;;;;;6.72;3.13;;;;;;;5.89;52.35;101140.50;1087955;54;20031;-81
2022/04/17 02:33:18;;;;;;;6.30;3.67;;;;;;;5.89;52.25;101137.84;1087928;54;20042;-79
2022/04/17 02:34:22;;;;;;;7.03;3.55;;;;;;;5.88;52.48;101142.28;1087902;54;20034;-80
2022/04/17 02:35:23;;;;;;;5.55;2.97;;;;;;;5.92;52.16;101142.97;1087872;54;20045;-79
2022/04/17 02:36:28;;;;;;;5.57;3.03;;;;;;;5.92;52.06;101140.31;1087971;54;20034;-81
2022/04/17 02:37:29;;;;;;;6.70;3.45;;;;;;;5.92;52.28;101140.31;1087974;54;20031;-80
2022/04/17 02:38:34;;;;;;;5.85;3.17;;;;;;;5.92;52.32;101140.31;1088288;54;20038;-79
2022/04/17 02:39:38;;;;;;;7.28;3.45;;;;;;;5.92;52.13;101140.31;1088379;54;20065;-80
2022/04/17 02:40:42;;;;;;;6.93;3.55;;;;;;;5.88;52.03;101138.78;1088339;54;20057;-81
2022/04/17 02:41:47;;;;;;;8.18;3.88;;;;;;;5.87;52.37;101143.25;1087993;54;20041;-80
2022/04/17 02:42:48;;;;;;;5.90;3.03;;;;;;;5.84;52.16;101137.25;1087968;54;20038;-81
2022/04/17 02:43:52;;;;;;;5.45;3.10;;;;;;;5.87;52.26;101142.38;1088318;54;20037;-81
2022/04/17 02:44:54;;;;;;;6.32;3.72;;;;;;;5.86;52.20;101145.97;1088355;54;20042;-82
2022/04/17 02:45:58;;;;;;;8.15;3.65;;;;;;;5.80;52.27;101139.22;1088427;54;20031;-82
2022/04/17 02:48:19;;;;;;;5.20;3.50;;;;;;;5.77;52.47;101137.59;1088321;54;20034;-79
2022/04/17 02:49:21;;;;;;;6.25;3.38;;;;;;;5.75;52.27;101139.50;1088346;54;20126;-80
2022/04/17 02:50:23;;;;;;;6.50;3.42;;;;;;;5.78;52.15;101138.47;1090850;39;20636;-79
2022/04/17 02:51:27;;;;;;;6.93;3.60;;;;;;;5.78;52.29;101130.50;1093394;39;20633;-79
2022/04/17 02:52:28;;;;;;;4.68;2.83;;;;;;;5.76;52.42;101135.03;1088270;54;20035;-79
2022/04/17 02:53:33;;;;;;;6.22;3.65;;;;;;;5.72;52.53;101133.47;1087971;54;20852;-80
2022/04/17 02:55:40;;;;;;;4.85;3.38;;;;;;;5.74;52.39;101136.91;1088591;54;20034;-80
2022/04/17 02:56:45;;;;;;;5.53;3.17;;;;;;;5.73;52.33;101127.22;1088609;54;20039;-79
2022/04/17 02:57:51;;;;;;;5.50;3.38;;;;;;;5.70;52.38;101122.97;1088684;54;20025;-80
2022/04/17 02:58:54;;;;;;;5.28;3.50;;;;;;;5.72;52.46;101125.50;1088386;54;20022;-78
2022/04/17 02:59:58;;;;;;;6.72;3.65;;;;;;;5.67;52.47;101128.44;1088474;54;20210;-79
2022/04/17 03:06:10;;;;;;;7.32;3.22;;;;;;;5.65;52.58;101122.38;1088390;54;20626;-78
2022/04/17 03:07:12;;;;;;;6.35;3.08;;;;;;;5.63;52.67;101124.25;1088338;54;20025;-79
2022/04/17 03:08:18;;;;;;;5.90;3.33;;;;;;;5.61;52.82;101121.69;1088368;54;20026;-80
2022/04/17 03:09:20;;;;;;;5.18;3.55;;;;;;;5.61;52.60;101123.47;1088417;54;20018;-79
2022/04/17 03:10:24;;;;;;;4.90;2.97;;;;;;;5.60;52.56;101121.75;1088430;54;20014;-78
2022/04/17 03:11:29;;;;;;;6.85;3.50;;;;;;;5.58;52.68;101123.63;1088415;54;20018;-79
2022/04/17 03:12:36;;;;;;;7.10;3.13;;;;;;;5.56;52.88;101133.50;1088360;54;20034;-78
2022/04/17 03:13:40;;;;;;;7.25;3.30;;;;;;;5.50;53.07;101129.41;1088205;54;20040;-79
2022/04/17 03:14:42;;;;;;;5.28;3.22;;;;;;;5.49;53.24;101126.81;1088146;54;20034;-79
2022/04/17 03:15:46;;;;;;;6.68;3.25;;;;;;;5.45;53.44;101127.00;1088053;54;20031;-80
2022/04/17 03:16:48;;;;;;;6.20;3.30;;;;;;;5.45;53.09;101129.66;1088288;54;20022;-79
2022/04/17 03:17:52;;;;;;;6.57;3.47;;;;;;;5.49;52.97;101132.97;1088298;54;20074;-78
2022/04/17 03:18:56;;;;;;;7.30;3.95;;;;;;;5.46;53.38;101138.44;1088275;54;20038;-79
2022/04/17 03:19:58;;;;;;;5.45;2.90;;;;;;;5.51;53.18;101133.75;1088359;54;20011;-79
2022/04/17 03:21:02;;;;;;;5.35;3.28;;;;;;;5.52;53.08;101131.94;1088345;54;20034;-79
2022/04/17 03:22:04;;;;;;;7.15;3.78;;;;;;;5.45;53.13;101132.31;1088228;54;20034;-78
2022/04/17 03:23:09;;;;;;;5.82;3.35;;;;;;;5.45;53.08;101127.00;1088307;54;20026;-78
2022/04/17 03:24:12;;;;;;;5.60;3.65;;;;;;;5.39;53.48;101129.97;1088230;54;20030;-78
2022/04/17 03:25:16;;;;;;;6.28;3.08;;;;;;;5.40;53.35;101123.72;1092663;39;20613;-79
2022/04/17 03:26:17;;;;;;;6.97;3.78;;;;;;;5.39;53.31;101132.63;1088344;54;20094;-79
2022/04/17 03:27:22;;;;;;;6.22;3.60;;;;;;;5.41;53.60;101121.94;1096387;39;20268;-79
2022/04/17 03:28:27;;;;;;;6.28;3.42;;;;;;;5.39;53.69;101129.13;1088185;54;20058;-79
2022/04/17 03:29:32;;;;;;;6.95;3.47;;;;;;;5.34;53.78;101125.88;1088283;54;20045;-78
2022/04/17 03:30:33;;;;;;;5.55;3.58;;;;;;;5.27;54.04;101128.84;1088324;54;20037;-79
2022/04/17 03:31:37;;;;;;;8.77;3.53;;;;;;;5.23;54.36;101129.13;1087975;54;20046;-79
2022/04/17 03:32:39;;;;;;;7.00;3.60;;;;;;;5.21;54.38;101133.63;1088055;54;20038;-79
2022/04/17 03:33:43;;;;;;;5.00;3.30;;;;;;;5.17;54.67;101134.75;1088289;54;20018;-78
2022/04/17 03:34:45;;;;;;;6.57;3.85;;;;;;;5.11;54.83;101128.81;1088295;54;20019;-78
2022/04/17 03:35:49;;;;;;;7.28;3.60;;;;;;;5.06;54.90;101130.00;1088279;54;20074;-79
2022/04/17 03:36:53;;;;;;;5.82;3.47;;;;;;;4.98;55.15;101127.78;1088185;54;20749;-79
2022/04/17 03:37:54;;;;;;;5.63;3.65;;;;;;;5.01;55.20;101135.56;1088369;54;20026;-78
2022/04/17 03:38:59;;;;;;;6.10;3.78;;;;;;;5.05;55.09;101134.47;1088338;54;20090;-78
2022/04/17 03:40:00;;;;;;;5.00;2.95;;;;;;;5.04;55.24;101134.56;1088296;54;20034;-80
2022/04/17 03:41:05;;;;;;;7.00;4.00;;;;;;;5.00;55.41;101133.88;1088306;54;20090;-78
2022/04/17 03:42:06;;;;;;;5.38;3.30;;;;;;;5.03;55.16;101138.16;1088261;54;20057;-79
2022/04/17 03:43:11;;;;;;;5.18;3.42;;;;;;;5.00;55.17;101141.84;1088316;54;20725;-78
2022/04/17 03:44:15;;;;;;;6.22;3.35;;;;;;;5.09;55.06;101135.16;1088209;54;20038;-78
2022/04/17 03:45:19;;;;;;;7.40;3.50;;;;;;;5.06;55.03;101143.25;1090282;46;20038;-80
2022/04/17 03:46:20;;;;;;;7.10;3.40;;;;;;;5.04;55.15;101140.72;1088246;54;20088;-79
2022/04/17 03:47:25;;;;;;;5.82;3.33;;;;;;;5.08;54.84;101129.03;1088208;54;20050;-78
2022/04/17 03:48:26;;;;;;;7.22;3.40;;;;;;;5.08;54.91;101122.84;1087798;54;20042;-78
2022/04/17 03:49:31;;;;;;;5.97;3.50;;;;;;;5.04;54.87;101130.09;1087948;54;20034;-78
2022/04/17 03:50:35;;;;;;;5.88;3.38;;;;;;;5.03;54.85;101123.09;1088246;54;20039;-78
2022/04/17 03:51:37;;;;;;;6.40;3.55;;;;;;;5.03;54.97;101123.09;1088148;54;20033;-78
2022/04/17 03:52:42;;;;;;;5.93;3.25;;;;;;;5.00;54.73;101131.22;1088208;54;20037;-80
2022/04/17 03:53:44;;;;;;;6.53;3.40;;;;;;;4.99;54.79;101118.91;1088147;54;20038;-78
2022/04/17 03:54:48;;;;;;;6.40;3.53;;;;;;;5.02;54.72;101124.03;1087806;54;20026;-79
2022/04/17 03:55:50;;;;;;;5.57;3.50;;;;;;;4.93;55.10;101124.53;1087852;47;20760;-79
2022/04/17 03:56:54;;;;;;;5.93;3.25;;;;;;;4.93;55.17;101124.53;1087821;54;20050;-79
2022/04/17 03:57:58;;;;;;;5.20;3.35;;;;;;;4.91;55.10;101127.25;1087843;54;20057;-80
2022/04/17 03:59:01;;;;;;;6.65;3.65;;;;;;;4.91;55.00;101129.06;1087871;54;20066;-78
2022/04/17 04:00:10;;;;;;;8.27;4.38;;;;;;;4.87;55.16;101131.00;1087851;54;20135;-79
2022/04/17 04:01:12;;;;;;;6.60;3.70;;;;;;;4.88;55.20;101124.75;1087787;54;20437;-80
2022/04/17 04:02:17;;;;;;;7.43;3.50;;;;;;;4.90;55.13;101122.06;1087821;54;20034;-80
2022/04/17 04:03:22;;;;;;;6.90;3.90;;;;;;;4.83;55.37;101118.88;1087833;54;20823;-80
2022/04/17 04:04:24;;;;;;;6.47;3.40;;;;;;;4.87;55.24;101120.41;1091388;39;20605;-79
2022/04/17 04:05:28;;;;;;;7.45;3.60;;;;;;;4.86;55.24;101117.84;1087899;54;20035;-79
2022/04/17 04:06:30;;;;;;;7.22;3.95;;;;;;;4.87;55.11;101114.25;1087856;54;20052;-79
2022/04/17 04:07:34;;;;;;;6.28;3.80;;;;;;;4.82;55.42;101123.28;1087815;54;20037;-79
2022/04/17 04:08:38;;;;;;;5.78;3.22;;;;;;;4.80;55.31;101109.28;1087767;54;20046;-80
2022/04/17 04:09:39;;;;;;;6.05;3.85;;;;;;;4.84;55.58;101116.13;1088128;46;20128;-80
2022/04/17 04:10:44;;;;;;;6.68;3.78;;;;;;;4.79;55.59;101118.19;1087950;54;20042;-78
2022/04/17 04:11:45;;;;;;;7.53;3.45;;;;;;;4.83;55.22;101114.41;1088155;54;20034;-79
2022/04/17 04:12:49;;;;;;;6.70;3.35;;;;;;;4.84;55.28;101113.47;1088270;54;20022;-80
2022/04/17 04:13:53;;;;;;;5.95;3.30;;;;;;;4.86;55.37;101117.84;1088323;54;20038;-79
2022/04/17 04:15:05;;;;;;;7.50;3.28;;;;;;;4.91;55.29;101121.97;1091441;46;20423;-78
2022/04/17 04:16:09;;;;;;;6.70;3.50;;;;;;;4.84;55.31;101124.06;1088412;47;20050;-79
2022/04/17 04:17:14;;;;;;;6.85;3.60;;;;;;;4.79;55.37;101118.19;1090842;46;20097;-78
2022/04/17 04:18:15;;;;;;;7.70;3.70;;;;;;;4.74;55.74;101119.34;1088272;54;20041;-78
2022/04/17 04:19:19;;;;;;;6.50;3.53;;;;;;;4.72;55.76;101119.44;1088330;54;20034;-80
2022/04/17 04:20:21;;;;;;;6.13;4.25;;;;;;;4.68;55.95;101118.72;1088210;54;20054;-79
2022/04/17 04:21:25;;;;;;;6.03;3.70;;;;;;;4.69;56.11;101119.59;1088286;54;20035;-79
2022/04/17 04:22:27;;;;;;;6.60;4.03;;;;;;;4.64;55.95;101114.53;1089091;46;20038;-79
2022/04/17 04:23:34;;;;;;;7.78;3.75;;;;;;;4.65;56.30;101118.03;1088162;54;20021;-78
2022/04/17 04:24:35;;;;;;;7.18;3.92;;;;;;;4.66;56.15;101119.75;1087923;54;20038;-77
2022/04/17 04:25:39;;;;;;;5.75;3.53;;;;;;;4.63;56.16;101117.28;1087524;54;20031;-79
2022/04/17 04:26:42;;;;;;;6.78;3.60;;;;;;;4.62;55.97;101121.72;1087834;54;20042;-79
2022/04/17 04:29:05;;;;;;;5.85;3.70;;;;;;;4.66;56.08;101125.03;1087807;54;20041;-78
2022/04/17 04:30:09;;;;;;;6.18;3.47;;;;;;;4.65;56.16;101123.34;1087800;54;20034;-79
2022/04/17 04:31:17;;;;;;;6.32;3.85;;;;;;;4.66;56.10;101127.69;1087802;54;20034;-78
2022/04/17 04:32:19;;;;;;;6.05;3.50;;;;;;;4.67;55.97;101121.47;1087807;54;20045;-77
2022/04/17 04:33:23;;;;;;;7.55;3.65;;;;;;;4.62;56.29;101126.16;1088160;54;20035;-79
2022/04/17 04:34:25;;;;;;;6.60;3.60;;;;;;;4.59;56.29;101128.97;1087900;54;20035;-81
2022/04/17 04:35:29;;;;;;;7.60;4.30;;;;;;;4.59;56.17;101126.31;1088755;39;20166;-79
2022/04/17 04:36:31;;;;;;;5.55;3.75;;;;;;;4.58;56.50;101127.25;1088215;46;20080;-78
2022/04/17 04:37:35;;;;;;;6.15;3.63;;;;;;;4.62;56.44;101126.16;1087873;54;20030;-79
2022/04/17 04:38:38;;;;;;;5.10;3.45;;;;;;;4.59;56.35;101126.31;1087756;54;20035;-79
2022/04/17 04:39:42;;;;;;;6.05;3.40;;;;;;;4.56;56.32;101121.16;1087916;54;20111;-79
2022/04/17 04:40:44;;;;;;;7.47;3.67;;;;;;;4.58;56.34;101117.50;1088210;46;20038;-77
2022/04/17 04:41:48;;;;;;;8.68;3.85;;;;;;;4.58;56.47;101114.84;1087759;54;20030;-78
2022/04/17 04:42:59;;;;;;;5.72;3.88;;;;;;;4.53;56.44;101117.72;1088061;54;20038;-78
2022/04/17 04:44:00;;;;;;;6.93;3.83;;;;;;;4.55;56.49;101111.50;1088088;54;20682;-77
2022/04/17 04:46:24;;;;;;;7.07;3.45;;;;;;;4.67;55.93;101113.53;1087980;54;20041;-79
2022/04/17 04:47:25;;;;;;;6.75;4.13;;;;;;;4.62;56.23;101115.56;1094946;39;20484;-77
2022/04/17 04:49:46;;;;;;;7.30;3.63;;;;;;;4.67;56.03;101119.69;1088102;54;20123;-77
2022/04/17 04:50:48;;;;;;;6.38;3.58;;;;;;;4.66;55.88;101119.75;1088784;39;20483;-77
2022/04/17 04:51:52;;;;;;;8.73;4.03;;;;;;;4.59;56.15;101119.22;1087988;54;20031;-76
2022/04/17 04:52:54;;;;;;;6.00;4.05;;;;;;;4.51;56.60;101119.63;1095717;39;20514;-77
2022/04/17 04:53:59;;;;;;;6.78;3.90;;;;;;;4.47;56.54;101118.06;1088066;54;20053;-77
2022/04/17 04:55:01;;;;;;;8.90;4.03;;;;;;;4.48;56.67;101113.63;1087862;54;20729;-78
2022/04/17 04:56:05;;;;;;;8.02;3.83;;;;;;;4.45;56.54;101116.44;1087280;54;20030;-77
2022/04/17 04:57:11;;;;;;;6.38;3.75;;;;;;;4.49;56.76;101123.25;1087745;54;20034;-77
2022/04/17 04:58:15;;;;;;;7.90;3.83;;;;;;;4.46;56.86;101116.34;1090777;46;20119;-78
2022/04/17 04:59:24;;;;;;;6.65;3.67;;;;;;;4.44;56.77;101118.22;1090487;46;20034;-78
2022/04/17 05:00:28;;;;;;;9.27;4.55;;;;;;;4.48;56.58;101118.94;1088710;47;20014;-77
2022/04/17 05:01:35;;;;;;;6.25;3.70;;;;;;;4.57;56.25;101117.59;1088321;47;20434;-77
2022/04/17 05:02:37;;;;;;;6.40;3.30;;;;;;;4.65;55.90;101112.72;1088289;54;20038;-78
2022/04/17 05:03:44;;;;;;;6.57;3.67;;;;;;;4.65;56.01;101110.97;1094555;47;20025;-78
2022/04/17 05:04:45;;;;;;;6.28;3.40;;;;;;;4.63;56.01;101115.47;1088324;54;20023;-77
2022/04/17 05:05:53;;;;;;;6.55;3.88;;;;;;;4.60;56.09;101115.63;1088416;54;20022;-78
2022/04/17 05:06:54;;;;;;;5.72;3.40;;;;;;;4.65;56.09;101110.09;1088332;54;20030;-77
2022/04/17 05:08:00;;;;;;;6.90;3.67;;;;;;;4.60;56.09;101107.69;1096938;39;20456;-78
2022/04/17 05:09:02;;;;;;;7.20;3.58;;;;;;;4.58;56.36;101114.00;1088192;54;20030;-78
2022/04/17 05:10:08;;;;;;;7.55;3.38;;;;;;;4.61;56.19;101113.84;1088179;54;20019;-78
2022/04/17 05:11:09;;;;;;;6.07;3.58;;;;;;;4.66;56.01;101117.09;1088150;54;20023;-78
2022/04/17 05:12:15;;;;;;;5.80;3.35;;;;;;;4.71;55.91;101116.84;1088000;54;20034;-78
2022/04/17 05:13:17;;;;;;;6.53;3.45;;;;;;;4.71;56.08;101115.09;1087876;54;20045;-78
2022/04/17 05:14:22;;;;;;;6.10;3.60;;;;;;;4.70;55.79;101121.31;1088040;54;20030;-80
2022/04/17 05:15:24;;;;;;;5.97;3.55;;;;;;;4.63;56.12;101114.63;1088606;39;20648;-78
2022/04/17 05:16:28;;;;;;;5.95;3.78;;;;;;;4.55;56.33;101114.16;1088151;54;20015;-78
2022/04/17 05:17:33;;;;;;;7.55;4.10;;;;;;;4.50;56.28;101117.91;1088100;54;20663;-78
2022/04/17 05:18:37;;;;;;;6.78;3.88;;;;;;;4.51;56.25;101124.91;1088124;54;20651;-77
2022/04/17 05:19:39;;;;;;;7.60;4.28;;;;;;;4.53;56.32;101123.03;1088140;54;20042;-79
2022/04/17 05:20:45;;;;;;;7.82;3.67;;;;;;;4.54;56.26;101123.91;1088136;54;20031;-79
2022/04/17 05:21:47;;;;;;;7.95;3.90;;;;;;;4.56;56.03;101122.03;1088116;54;20061;-78
2022/04/17 05:22:56;;;;;;;7.63;3.85;;;;;;;4.57;56.33;101122.88;1088037;54;20046;-78
2022/04/17 05:23:58;;;;;;;5.63;3.80;;;;;;;4.49;56.56;101124.13;1088124;54;20682;-78
2022/04/17 05:25:02;;;;;;;6.13;3.72;;;;;;;4.50;56.23;101124.97;1090055;47;20042;-76
2022/04/17 05:26:07;;;;;;;7.82;4.22;;;;;;;4.55;56.19;101122.97;1088154;54;20034;-78
2022/04/17 05:27:09;;;;;;;6.78;3.47;;;;;;;4.59;56.25;101131.59;1088318;54;20096;-77
2022/04/17 05:28:13;;;;;;;6.32;3.88;;;;;;;4.56;56.36;101131.75;1088371;54;20034;-77
2022/04/17 05:29:18;;;;;;;7.32;3.80;;;;;;;4.54;56.39;101129.19;1088123;54;20030;-77
2022/04/17 05:30:19;;;;;;;6.10;3.75;;;;;;;4.56;56.29;101139.69;1088160;54;20042;-77
2022/04/17 05:31:24;;;;;;;6.57;3.75;;;;;;;4.61;56.45;101137.69;1091608;47;20030;-79
2022/04/17 05:32:28;;;;;;;6.15;3.97;;;;;;;4.58;56.40;101133.38;1090372;47;20034;-77
2022/04/17 05:33:33;;;;;;;6.35;3.88;;;;;;;4.57;56.22;101142.28;1088853;47;20041;-77
2022/04/17 05:34:37;;;;;;;7.63;3.75;;;;;;;4.59;56.35;101140.41;1088249;54;20019;-78
2022/04/17 05:35:40;;;;;;;7.30;3.75;;;;;;;4.60;56.22;101142.09;1088286;54;20069;-77
2022/04/17 05:36:44;;;;;;;6.32;3.63;;;;;;;4.63;56.15;101141.13;1088412;54;20023;-78
2022/04/17 05:37:46;;;;;;;8.27;3.50;;;;;;;4.66;55.98;101138.28;1088560;54;20137;-78
2022/04/17 05:38:53;;;;;;;8.02;3.70;;;;;;;4.67;55.92;101140.00;1088438;54;20042;-77
2022/04/17 05:39:57;;;;;;;6.10;3.60;;;;;;;4.68;55.77;101142.56;1088516;54;20025;-77
2022/04/17 05:41:00;;;;;;;7.32;3.88;;;;;;;4.69;55.70;101133.69;1088480;54;20042;-77
2022/04/17 05:42:07;;;;;;;5.32;3.63;;;;;;;4.75;55.46;101136.97;1088670;54;20019;-79
2022/04/17 05:43:10;;;;;;;6.05;3.70;;;;;;;4.78;55.72;101135.00;1088741;54;20025;-79
2022/04/17 05:44:15;;;;;;;6.68;3.72;;;;;;;4.80;55.34;101132.28;1088638;54;20045;-77
2022/04/17 05:45:17;;;;;;;6.97;3.42;;;;;;;4.86;55.18;101128.44;1088739;54;20022;-78
2022/04/17 05:46:22;;;;;;;5.65;3.55;;;;;;;4.95;55.20;101127.94;1088526;54;20792;-79
2022/04/17 05:47:29;;;;;;;6.63;3.50;;;;;;;5.05;54.95;101130.97;1088664;54;20030;-80
2022/04/17 05:48:36;;;;;;;5.05;3.08;;;;;;;5.12;54.59;101125.25;1088705;54;20027;-79
2022/04/17 05:49:38;;;;;;;6.18;3.70;;;;;;;5.17;54.44;101126.81;1088603;54;20045;-80